Time;durP1;ratioP1;P1;durP2;ratioP2;P2;SDS_P1;SDS_P2;PMS_P1;PMS_P2;Temp;Humidity;BMP_temperature;BMP_pressure;BME280_temperature;BME280_humidity;BME280_pressure;Samples;Min_cycle;Max_cycle;Signal;HPM_P1;HPM_P2
2022/02/11 00:02:17;;;;;;;25.25;12.90;;;;;;;1.54;100.00;102074.47;5093377;28;20024;-74
2022/02/11 00:07:32;;;;;;;26.10;12.95;;;;;;;1.50;100.00;102071.56;5090535;28;20040;-74
2022/02/11 00:09:58;;;;;;;26.52;13.52;;;;;;;1.53;100.00;102077.88;5092315;28;20371;-73
2022/02/11 00:12:23;;;;;;;27.33;13.40;;;;;;;1.53;100.00;102071.72;5092612;28;20461;-73
2022/02/11 00:17:30;;;;;;;27.40;13.63;;;;;;;1.50;100.00;102072.47;5090274;28;20028;-73
2022/02/11 00:19:56;;;;;;;25.42;13.32;;;;;;;1.54;100.00;102070.94;5091443;28;20028;-73
2022/02/11 00:22:22;;;;;;;26.80;13.93;;;;;;;1.49;100.00;102075.00;5090746;28;20040;-83
2022/02/11 00:24:48;;;;;;;29.33;13.60;;;;;;;1.47;100.00;102076.59;5092611;28;20024;-73
2022/02/11 00:32:36;;;;;;;26.67;13.65;;;;;;;1.33;100.00;102068.81;5092032;28;20431;-74
2022/02/11 00:35:12;;;;;;;26.50;13.88;;;;;;;1.28;100.00;102070.25;5092583;28;20035;-74
2022/02/11 00:37:40;;;;;;;30.63;14.60;;;;;;;1.29;100.00;102060.72;5092020;28;20028;-75
2022/02/11 00:40:33;;;;;;;26.88;14.30;;;;;;;1.36;100.00;102053.38;5092036;28;20032;-74
2022/02/11 01:04:00;;;;;;;28.13;15.82;;;;;;;1.10;100.00;102063.91;5017289;28;20092;-74
2022/02/11 01:06:27;;;;;;;30.55;15.90;;;;;;;1.12;100.00;102063.22;5015904;28;20039;-74
2022/02/11 01:08:53;;;;;;;28.83;16.05;;;;;;;1.10;100.00;102069.13;5014925;28;20099;-74
2022/02/11 01:11:35;;;;;;;28.80;16.00;;;;;;;1.10;100.00;102067.41;5016751;28;20152;-81
2022/02/11 01:14:00;;;;;;;28.95;15.57;;;;;;;1.07;100.00;102068.94;5011979;28;20033;-73
2022/02/11 01:16:38;;;;;;;26.70;15.35;;;;;;;1.09;100.00;102076.00;5017295;28;20553;-73
2022/02/11 01:19:32;;;;;;;30.38;16.13;;;;;;;1.09;100.00;102072.50;5016869;28;20037;-73
2022/02/11 01:24:48;;;;;;;29.40;16.23;;;;;;;1.18;100.00;102062.66;5017443;28;20050;-73
2022/02/11 01:27:23;;;;;;;29.25;15.68;;;;;;;1.17;100.00;102072.19;5013538;28;20034;-73
2022/02/11 01:35:28;;;;;;;31.52;17.30;;;;;;;1.16;100.00;102066.88;5031926;28;20482;-83
2022/02/11 01:38:07;;;;;;;28.98;16.50;;;;;;;1.14;100.00;102061.59;5090373;28;20399;-74
2022/02/11 01:41:51;;;;;;;28.50;16.45;;;;;;;1.21;100.00;102075.91;5089906;28;20074;-74
2022/02/11 01:43:58;;;;;;;30.25;16.42;;;;;;;1.21;100.00;102075.91;5088189;28;20043;-73
2022/02/11 01:56:59;;;;;;;28.13;16.00;;;;;;;1.48;100.00;102083.59;5089275;28;20036;-73
2022/02/11 02:10:50;;;;;;;29.00;15.90;;;;;;;1.45;100.00;102062.56;5031330;28;20036;-73
2022/02/11 02:26:10;;;;;;;29.67;14.05;;;;;;;1.60;100.00;102057.38;5040626;28;20067;-74
2022/02/11 02:29:32;;;;;;;27.38;13.18;;;;;;;1.73;100.00;102073.88;5037924;28;20289;-73
2022/02/11 02:50:13;;;;;;;31.95;15.68;;;;;;;1.80;100.00;102084.66;5092665;28;20043;-75
2022/02/11 02:58:25;;;;;;;29.90;12.98;;;;;;;1.77;100.00;102071.44;5091577;28;20035;-74
2022/02/11 03:49:46;;;;;;;29.45;7.13;;;;;;;2.31;100.00;102104.19;5090823;28;20177;-75
2022/02/11 03:58:11;;;;;;;27.92;6.50;;;;;;;2.55;100.00;102122.06;5092664;28;20071;-74
2022/02/11 04:22:33;;;;;;;23.45;4.40;;;;;;;2.92;100.00;102155.50;5091141;28;20501;-74
2022/02/11 05:00:14;;;;;;;23.70;4.18;;;;;;;2.68;100.00;102231.66;5089410;28;20047;-74
2022/02/11 05:02:45;;;;;;;25.45;3.90;;;;;;;2.61;100.00;102239.94;5092248;28;20028;-75
2022/02/11 05:05:11;;;;;;;25.92;4.50;;;;;;;2.63;100.00;102251.34;5089478;28;20023;-82
2022/02/11 05:07:37;;;;;;;27.33;4.78;;;;;;;2.61;100.00;102242.53;5091331;28;20024;-75
2022/02/11 05:10:04;;;;;;;26.60;4.50;;;;;;;2.65;100.00;102251.44;5091687;28;20035;-77
2022/02/11 05:12:30;;;;;;;28.33;5.13;;;;;;;2.82;100.00;102248.09;5091143;28;20024;-76
2022/02/11 05:14:55;;;;;;;26.80;4.50;;;;;;;2.78;100.00;102251.34;5091871;28;20038;-75
2022/02/11 05:17:21;;;;;;;26.75;4.45;;;;;;;2.70;100.00;102258.75;5091393;28;20024;-75
2022/02/11 05:19:46;;;;;;;26.20;4.70;;;;;;;2.69;100.00;102258.66;5089855;28;20536;-74
2022/02/11 05:22:11;;;;;;;27.95;5.00;;;;;;;2.69;100.00;102269.97;5092147;28;20020;-74
2022/02/11 05:24:37;;;;;;;25.50;4.93;;;;;;;2.76;100.00;102269.53;5091188;28;20467;-79
2022/02/11 05:27:02;;;;;;;29.48;5.28;;;;;;;2.76;100.00;102273.88;5091156;28;20055;-74
2022/02/11 05:29:27;;;;;;;29.20;5.15;;;;;;;2.76;100.00;102272.16;5090643;28;20020;-75
2022/02/11 05:31:53;;;;;;;28.02;4.78;;;;;;;2.73;100.00;102277.19;5091855;28;20550;-75
2022/02/11 05:34:18;;;;;;;27.30;4.97;;;;;;;2.73;100.00;102290.25;5091430;28;20028;-74
2022/02/11 05:36:43;;;;;;;29.15;5.13;;;;;;;2.70;100.00;102289.19;5090888;28;20020;-82
2022/02/11 05:39:09;;;;;;;28.58;5.00;;;;;;;2.81;100.00;102301.19;5090903;28;20475;-75
2022/02/11 05:41:34;;;;;;;31.45;5.10;;;;;;;2.87;100.00;102316.28;5091009;28;20016;-74
2022/02/11 05:44:00;;;;;;;29.38;5.68;;;;;;;2.96;100.00;102309.91;5091378;28;20024;-77
2022/02/11 05:46:27;;;;;;;27.42;4.65;;;;;;;3.15;100.00;102318.81;5091049;28;20028;-76
2022/02/11 05:48:54;;;;;;;28.70;4.72;;;;;;;3.24;100.00;102332.41;5090271;28;20505;-74
2022/02/11 05:51:19;;;;;;;29.30;4.90;;;;;;;3.27;100.00;102329.09;5091100;28;20035;-79
2022/02/11 05:53:44;;;;;;;24.48;4.88;;;;;;;3.25;100.00;102330.72;5091140;28;20028;-79
2022/02/11 05:56:10;;;;;;;26.58;4.70;;;;;;;3.21;100.00;102336.56;5092896;28;20024;-75
2022/02/11 05:58:37;;;;;;;28.30;4.97;;;;;;;3.23;100.00;102332.31;5095189;28;20073;-75
2022/02/11 06:01:03;;;;;;;28.80;5.72;;;;;;;3.13;100.00;102350.09;5094720;28;20016;-76
2022/02/11 06:03:28;;;;;;;27.63;4.80;;;;;;;2.99;100.00;102351.00;5095367;28;20589;-74
2022/02/11 06:05:54;;;;;;;28.92;5.05;;;;;;;3.08;100.00;102353.25;5095515;28;20032;-75
2022/02/11 06:08:19;;;;;;;30.85;6.05;;;;;;;2.99;100.00;102365.78;5094536;28;20413;-74
2022/02/11 06:10:44;;;;;;;30.88;5.45;;;;;;;2.97;100.00;102361.34;5094997;28;20031;-81
2022/02/11 06:13:10;;;;;;;29.67;5.40;;;;;;;3.17;100.00;102363.34;5094834;28;20089;-83
2022/02/11 06:15:35;;;;;;;30.55;5.60;;;;;;;3.19;100.00;102372.16;5089594;28;20498;-74
2022/02/11 06:18:00;;;;;;;33.58;5.68;;;;;;;3.14;100.00;102367.56;5094729;28;20028;-77
2022/02/11 06:20:28;;;;;;;27.83;5.13;;;;;;;3.22;100.00;102385.41;5094507;28;20024;-75
2022/02/11 06:22:57;;;;;;;27.98;5.10;;;;;;;3.23;100.00;102377.69;5093380;28;20024;-79
2022/02/11 06:25:22;;;;;;;28.02;5.30;;;;;;;3.28;100.00;102383.16;5093018;28;20103;-78
2022/02/11 06:27:48;;;;;;;27.88;5.18;;;;;;;3.23;100.00;102384.59;5094568;28;20120;-80
2022/02/11 06:30:13;;;;;;;30.55;5.53;;;;;;;3.27;100.00;102397.03;5093987;28;20123;-79
2022/02/11 06:32:39;;;;;;;29.90;5.03;;;;;;;3.21;100.00;102396.69;5093538;28;20028;-78
2022/02/11 06:35:06;;;;;;;29.45;5.60;;;;;;;3.13;100.00;102404.97;5094855;28;20024;-76
2022/02/11 06:37:32;;;;;;;28.38;4.95;;;;;;;3.12;100.00;102418.84;5093678;28;20032;-77
2022/02/11 06:39:57;;;;;;;28.48;5.38;;;;;;;3.17;100.00;102410.38;5092775;28;20032;-77
2022/02/11 06:42:22;;;;;;;27.75;5.00;;;;;;;3.29;100.00;102408.47;5094227;28;20023;-83
2022/02/11 06:44:48;;;;;;;25.75;4.93;;;;;;;3.31;100.00;102425.19;5094462;28;20024;-83
2022/02/11 06:47:13;;;;;;;26.02;4.53;;;;;;;3.33;100.00;102418.31;5094322;28;20107;-83
2022/02/11 06:49:38;;;;;;;26.38;5.30;;;;;;;3.26;100.00;102426.59;5093365;28;20036;-78
2022/02/11 06:52:04;;;;;;;26.88;4.95;;;;;;;3.17;100.00;102446.97;5094597;28;20031;-78
2022/02/11 06:54:30;;;;;;;28.05;4.95;;;;;;;3.13;100.00;102452.03;5094763;28;20028;-80
2022/02/11 06:56:55;;;;;;;23.48;4.53;;;;;;;3.18;100.00;102462.75;5091446;28;20379;-80
2022/02/11 06:59:20;;;;;;;25.83;4.80;;;;;;;3.11;100.00;102466.69;5093542;28;21422;-80
2022/02/11 07:01:46;;;;;;;23.38;4.43;;;;;;;3.21;100.00;102470.75;5092819;28;20045;-86
2022/02/11 07:04:12;;;;;;;28.42;4.30;;;;;;;3.24;100.00;102488.34;5094415;28;20047;-83
2022/02/11 07:06:37;;;;;;;25.98;4.28;;;;;;;3.06;100.00;102501.19;5094201;28;20519;-80
2022/02/11 07:09:04;;;;;;;27.13;5.00;;;;;;;3.00;100.00;102501.72;5093784;28;20492;-77
2022/02/11 07:11:29;;;;;;;26.63;4.65;;;;;;;2.91;100.00;102503.75;5093725;28;20066;-80
2022/02/11 07:13:55;;;;;;;24.67;4.68;;;;;;;2.86;100.00;102507.81;5094103;28;20111;-78
2022/02/11 07:16:20;;;;;;;24.52;4.50;;;;;;;2.89;100.00;102528.91;5094116;28;20105;-78
2022/02/11 07:18:45;;;;;;;26.33;4.68;;;;;;;2.86;100.00;102519.16;5093578;28;20492;-80
2022/02/11 07:21:11;;;;;;;25.98;4.93;;;;;;;2.90;100.00;102534.22;5094315;28;20460;-79
2022/02/11 07:23:36;;;;;;;26.67;5.30;;;;;;;2.85;100.00;102547.78;5093404;28;20482;-81
2022/02/11 07:26:01;;;;;;;27.58;5.15;;;;;;;2.83;100.00;102546.81;5091944;28;20078;-79
2022/02/11 07:28:27;;;;;;;26.20;4.65;;;;;;;2.87;100.00;102546.16;5092880;28;20454;-80
2022/02/11 07:30:52;;;;;;;26.10;4.68;;;;;;;2.82;100.00;102555.44;5093243;28;20075;-80
2022/02/11 07:33:18;;;;;;;24.23;4.28;;;;;;;2.76;100.00;102569.91;5091945;28;20111;-81
2022/02/11 07:35:44;;;;;;;26.15;4.32;;;;;;;2.78;100.00;102570.00;5120013;27;20020;-78
2022/02/11 07:38:10;;;;;;;24.80;4.60;;;;;;;2.71;100.00;102573.94;5092864;28;20051;-80
2022/02/11 07:40:39;;;;;;;26.10;4.30;;;;;;;2.70;100.00;102581.69;5092608;28;20066;-77
2022/02/11 07:43:04;;;;;;;26.77;4.40;;;;;;;2.79;100.00;102582.25;5091112;28;20081;-78
2022/02/11 07:45:30;;;;;;;23.83;4.43;;;;;;;2.85;100.00;102579.13;5093528;28;20374;-79
2022/02/11 07:47:56;;;;;;;25.73;4.70;;;;;;;3.10;100.00;102587.72;5092407;28;20118;-76
2022/02/11 07:50:22;;;;;;;25.33;4.68;;;;;;;3.24;100.00;102595.53;5093139;28;20024;-79
2022/02/11 07:52:48;;;;;;;24.35;4.40;;;;;;;3.34;100.00;102612.69;5093032;28;20020;-76
2022/02/11 07:55:13;;;;;;;27.45;4.72;;;;;;;3.34;100.00;102637.13;5093295;28;20024;-79
2022/02/11 07:57:39;;;;;;;25.60;4.25;;;;;;;3.32;100.00;102646.59;5093200;28;20093;-75
2022/02/11 08:00:06;;;;;;;22.92;4.20;;;;;;;3.32;100.00;102651.81;5092766;28;20120;-78
2022/02/11 08:02:34;;;;;;;26.73;4.40;;;;;;;3.16;100.00;102659.47;5093220;28;20041;-76
2022/02/11 08:05:00;;;;;;;25.42;4.30;;;;;;;2.92;100.00;102668.44;5092954;28;20125;-76
2022/02/11 08:07:25;;;;;;;25.52;4.57;;;;;;;2.86;100.00;102669.78;5092477;28;20041;-76
2022/02/11 08:09:50;;;;;;;23.67;3.97;;;;;;;3.00;100.00;102674.19;5092965;28;20115;-78
2022/02/11 08:12:17;;;;;;;25.45;4.80;;;;;;;3.05;100.00;102680.59;5093527;28;20115;-77
2022/02/11 08:14:42;;;;;;;23.88;4.28;;;;;;;3.19;100.00;102688.41;5093863;28;20467;-76
2022/02/11 08:17:07;;;;;;;23.95;4.10;;;;;;;3.25;100.00;102701.91;5094152;28;20042;-76
2022/02/11 08:19:33;;;;;;;27.63;4.50;;;;;;;3.47;100.00;102714.63;5093198;28;20027;-77
2022/02/11 08:21:58;;;;;;;21.60;3.58;;;;;;;3.42;100.00;102722.19;5093786;28;20024;-75
2022/02/11 08:24:23;;;;;;;22.63;3.85;;;;;;;3.23;100.00;102725.34;5094265;28;20367;-76
2022/02/11 08:26:49;;;;;;;21.10;3.63;;;;;;;2.96;100.00;102727.06;5093681;28;20023;-77
2022/02/11 08:29:15;;;;;;;23.15;3.80;;;;;;;2.86;100.00;102728.16;5093627;28;20379;-77
2022/02/11 08:31:42;;;;;;;21.55;3.78;;;;;;;2.86;100.00;102727.25;5091948;28;20395;-76
2022/02/11 08:34:07;;;;;;;22.23;3.70;;;;;;;2.74;100.00;102720.41;5093635;28;20024;-76
2022/02/11 08:36:33;;;;;;;23.83;3.80;;;;;;;2.69;100.00;102736.56;5093517;28;20031;-76
2022/02/11 08:38:58;;;;;;;21.63;3.65;;;;;;;2.78;100.00;102739.78;5093645;28;20034;-76
2022/02/11 08:41:24;;;;;;;19.27;3.45;;;;;;;2.75;100.00;102745.72;5093377;28;20030;-76
2022/02/11 08:43:49;;;;;;;24.67;4.15;;;;;;;2.86;100.00;102758.59;5093462;28;20471;-81
2022/02/11 08:46:15;;;;;;;23.95;4.15;;;;;;;2.93;100.00;102763.44;5093394;28;20032;-81
2022/02/11 08:48:40;;;;;;;21.50;3.80;;;;;;;2.94;100.00;102760.91;5093230;28;20064;-79
2022/02/11 08:51:06;;;;;;;24.17;4.13;;;;;;;2.99;100.00;102768.16;5093583;28;20028;-83
2022/02/11 08:53:35;;;;;;;20.73;3.80;;;;;;;3.03;100.00;102773.69;5093298;28;20024;-82
2022/02/11 08:56:03;;;;;;;22.95;3.75;;;;;;;3.08;100.00;102777.50;5089696;28;20044;-79
2022/02/11 08:58:28;;;;;;;22.48;4.20;;;;;;;3.19;100.00;102786.06;5093194;28;20016;-84
2022/02/11 09:00:54;;;;;;;22.50;3.80;;;;;;;3.39;100.00;102783.81;5093172;28;20028;-82
2022/02/11 09:03:19;;;;;;;22.88;3.80;;;;;;;3.69;100.00;102783.97;5093034;28;20051;-82
2022/02/11 09:05:45;;;;;;;23.58;4.00;;;;;;;3.93;100.00;102779.38;5093277;28;20035;-78
2022/02/11 09:08:11;;;;;;;21.48;3.70;;;;;;;4.09;100.00;102790.00;5092984;28;20032;-74
2022/02/11 09:10:36;;;;;;;22.75;3.85;;;;;;;4.19;100.00;102789.75;5093217;28;20027;-77
2022/02/11 09:13:02;;;;;;;22.40;4.00;;;;;;;4.17;100.00;102799.22;5093234;28;20020;-76
2022/02/11 09:15:28;;;;;;;25.67;4.28;;;;;;;4.28;100.00;102799.88;5092792;28;20459;-76
2022/02/11 09:17:55;;;;;;;24.05;4.70;;;;;;;4.46;100.00;102801.81;5091485;28;20051;-75
2022/02/11 09:20:22;;;;;;;23.38;3.80;;;;;;;4.68;100.00;102796.16;5093195;28;20024;-80
2022/02/11 09:22:47;;;;;;;23.48;4.20;;;;;;;4.59;100.00;102806.06;5092868;28;20031;-75
2022/02/11 09:25:13;;;;;;;24.40;4.07;;;;;;;4.81;100.00;102808.25;5092708;28;20360;-79
2022/02/11 09:27:45;;;;;;;25.25;4.18;;;;;;;5.02;100.00;102806.00;5092795;28;20115;-80
2022/02/11 09:30:15;;;;;;;23.30;4.65;;;;;;;5.31;100.00;102817.25;5092466;28;20589;-82
2022/02/11 09:32:41;;;;;;;21.52;3.83;;;;;;;4.79;100.00;102823.91;5092975;28;20099;-77
2022/02/11 09:35:07;;;;;;;21.48;3.35;;;;;;;4.65;100.00;102824.78;5093176;28;20039;-75
2022/02/11 09:37:32;;;;;;;24.80;3.92;;;;;;;3.43;100.00;102823.31;5092890;28;20020;-75
2022/02/11 09:39:57;;;;;;;22.55;3.67;;;;;;;3.33;100.00;102825.25;5092555;28;20024;-75
2022/02/11 09:42:24;;;;;;;23.42;3.90;;;;;;;3.37;100.00;102838.63;5089825;28;20036;-76
2022/02/11 09:44:51;;;;;;;23.08;3.58;;;;;;;3.27;100.00;102841.44;5092466;28;20020;-75
2022/02/11 09:47:16;;;;;;;23.80;4.03;;;;;;;3.24;100.00;102851.69;5092137;28;20028;-76
2022/02/11 09:49:41;;;;;;;22.88;4.10;;;;;;;3.10;100.00;102843.84;5092126;28;20038;-78
2022/02/11 09:52:07;;;;;;;24.13;4.28;;;;;;;3.40;100.00;102841.44;5092082;28;20051;-80
2022/02/11 09:54:32;;;;;;;25.90;4.72;;;;;;;3.96;100.00;102837.13;5092587;28;20031;-77
2022/02/11 09:56:58;;;;;;;24.98;4.50;;;;;;;4.31;100.00;102847.22;5092749;28;20488;-77
2022/02/11 09:59:23;;;;;;;24.92;4.60;;;;;;;4.62;100.00;102858.66;5092401;28;20035;-76
2022/02/11 10:01:50;;;;;;;25.60;4.68;;;;;;;4.96;100.00;102860.69;5092250;28;20032;-77
2022/02/11 10:04:22;;;;;;;24.23;4.30;;;;;;;5.35;100.00;102859.50;5092549;28;20031;-78
2022/02/11 10:06:50;;;;;;;24.27;4.25;;;;;;;5.54;100.00;102858.81;5092623;28;20028;-78
2022/02/11 10:09:16;;;;;;;25.45;4.57;;;;;;;6.02;100.00;102863.25;5087233;28;20020;-82
2022/02/11 10:11:43;;;;;;;26.45;4.47;;;;;;;6.38;96.69;102864.34;5088621;28;20024;-79
2022/02/11 10:14:34;;;;;;;22.38;3.90;;;;;;;6.66;94.16;102865.81;5089156;28;20467;-82
2022/02/11 10:17:11;;;;;;;26.08;4.53;;;;;;;7.06;87.28;102882.75;5087811;28;20126;-82
2022/02/11 10:19:52;;;;;;;26.42;4.07;;;;;;;7.13;84.13;102895.41;5088401;28;20513;-79
2022/02/11 10:22:23;;;;;;;25.10;3.88;;;;;;;7.08;79.70;102891.66;5086463;28;20443;-81
2022/02/11 10:24:49;;;;;;;24.38;4.22;;;;;;;7.23;82.40;102897.66;5086951;28;20032;-80
2022/02/11 10:27:15;;;;;;;22.13;3.63;;;;;;;7.41;77.48;102896.78;5088402;28;20028;-88
2022/02/11 10:29:41;;;;;;;24.73;4.40;;;;;;;7.58;79.57;102905.53;5093628;28;20086;-83
2022/02/11 10:32:06;;;;;;;23.63;4.35;;;;;;;8.03;80.15;102906.84;5088683;28;20103;-80
2022/02/11 10:34:32;;;;;;;24.08;4.20;;;;;;;8.59;75.61;102908.56;5089346;28;20081;-81
2022/02/11 10:36:57;;;;;;;21.70;3.70;;;;;;;9.03;69.57;102913.19;5089725;28;20024;-78
2022/02/11 10:39:27;;;;;;;22.90;4.05;;;;;;;9.27;68.96;102922.97;5089994;28;20536;-77
2022/02/11 10:41:58;;;;;;;20.65;3.70;;;;;;;9.49;65.29;102919.50;5090552;28;20085;-77
2022/02/11 10:44:24;;;;;;;21.60;3.80;;;;;;;10.02;66.47;102921.63;5093160;28;20023;-78
2022/02/11 10:46:55;;;;;;;22.92;3.90;;;;;;;10.33;59.43;102914.91;5091718;28;20020;-77
2022/02/11 10:49:50;;;;;;;24.60;3.97;;;;;;;10.99;60.14;102930.59;5091936;28;20032;-82
2022/02/11 10:52:27;;;;;;;21.38;3.72;;;;;;;11.05;57.72;102927.28;5047694;28;20103;-81
2022/02/11 10:54:54;;;;;;;17.92;3.20;;;;;;;11.78;53.42;102931.53;5047542;28;20026;-81
2022/02/11 10:57:26;;;;;;;20.85;3.75;;;;;;;12.10;53.37;102937.00;5049612;28;20508;-84
2022/02/11 10:59:52;;;;;;;23.40;4.10;;;;;;;12.21;52.91;102951.47;5050664;28;20061;-81
2022/02/11 11:02:20;;;;;;;22.42;3.78;;;;;;;11.66;49.81;102939.97;5033097;28;20530;-79
2022/02/11 11:04:47;;;;;;;23.65;3.67;;;;;;;10.69;52.08;102933.94;5050374;28;20118;-80
2022/02/11 11:07:18;;;;;;;23.45;3.67;;;;;;;9.91;53.89;102940.59;5050683;28;20040;-80
2022/02/11 11:09:45;;;;;;;21.63;4.00;;;;;;;9.61;56.96;102948.19;5050572;28;20127;-77
2022/02/11 11:12:15;;;;;;;23.08;3.88;;;;;;;10.07;52.47;102954.44;5050015;28;20420;-79
2022/02/11 11:14:42;;;;;;;21.90;3.70;;;;;;;11.14;53.20;102952.31;5050551;28;20435;-79
2022/02/11 11:17:08;;;;;;;20.90;3.58;;;;;;;12.14;49.82;102960.06;5049537;28;20029;-77
2022/02/11 11:19:36;;;;;;;20.20;3.45;;;;;;;13.37;46.61;102969.84;5050447;28;20036;-81
2022/02/11 11:22:16;;;;;;;21.05;3.33;;;;;;;13.68;42.69;102973.28;5032711;28;20542;-83
2022/02/11 11:24:47;;;;;;;20.05;3.20;;;;;;;14.40;40.21;102971.44;5047737;28;20037;-82
2022/02/11 11:27:48;;;;;;;19.55;3.28;;;;;;;14.82;38.95;102967.91;5047580;28;20478;-82
2022/02/11 11:30:29;;;;;;;20.80;3.13;;;;;;;15.68;36.30;102969.53;5088870;28;20048;-82
2022/02/11 11:33:04;;;;;;;19.70;3.22;;;;;;;15.69;37.39;102984.63;5092414;28;20107;-81
2022/02/11 11:35:33;;;;;;;21.52;3.40;;;;;;;13.76;35.02;102966.38;5092589;28;20035;-80
2022/02/11 11:38:12;;;;;;;16.77;3.33;;;;;;;12.83;37.91;102977.19;5090889;28;20107;-82
2022/02/11 11:40:38;;;;;;;19.98;3.58;;;;;;;11.07;40.38;102979.41;5091768;28;20028;-85
2022/02/11 11:43:14;;;;;;;20.23;3.60;;;;;;;10.48;42.77;102967.50;5091693;28;20581;-82
2022/02/11 11:45:43;;;;;;;20.75;3.58;;;;;;;9.66;45.33;102980.94;5089960;28;20036;-82
2022/02/11 11:48:13;;;;;;;21.50;3.35;;;;;;;9.34;45.89;102976.94;5088831;28;20172;-78
2022/02/11 11:50:45;;;;;;;20.92;3.55;;;;;;;9.10;47.45;102977.69;5087392;28;20039;-80
2022/02/11 11:53:27;;;;;;;22.17;3.60;;;;;;;8.78;49.42;102982.41;5089945;28;20024;-80
2022/02/11 11:55:53;;;;;;;21.70;3.97;;;;;;;8.59;50.05;102980.66;5090517;28;20028;-82
2022/02/11 11:58:43;;;;;;;21.33;3.30;;;;;;;9.05;49.54;102990.66;5092078;28;20028;-75
2022/02/11 12:01:28;;;;;;;22.67;3.60;;;;;;;10.53;46.56;102984.44;5091164;28;20111;-75
2022/02/11 12:04:15;;;;;;;18.60;3.10;;;;;;;11.93;43.08;102991.19;5089001;28;20453;-76
2022/02/11 12:06:41;;;;;;;22.10;3.65;;;;;;;12.67;40.97;102998.84;5090321;28;20024;-76
2022/02/11 12:09:06;;;;;;;20.33;3.47;;;;;;;12.35;40.18;103006.72;5091925;28;20543;-75
2022/02/11 12:11:32;;;;;;;20.35;3.60;;;;;;;13.22;38.91;103004.81;5093544;28;20056;-76
2022/02/11 12:13:58;;;;;;;21.02;3.40;;;;;;;14.35;36.66;103013.00;5093840;28;20528;-76
2022/02/11 12:16:24;;;;;;;21.05;3.38;;;;;;;15.04;35.45;103017.19;5094237;28;20368;-76
2022/02/11 12:18:50;;;;;;;19.42;3.65;;;;;;;16.03;34.75;103011.91;5093964;28;20056;-76
2022/02/11 12:21:16;;;;;;;19.80;3.28;;;;;;;16.54;31.92;103015.34;5093845;28;20028;-76
2022/02/11 12:29:10;;;;;;;20.48;3.30;;;;;;;17.89;29.52;103028.41;5093923;28;20039;-77
2022/02/11 12:31:35;;;;;;;19.33;3.22;;;;;;;17.02;30.94;103017.72;5090689;28;20048;-74
2022/02/11 12:34:12;;;;;;;19.40;3.30;;;;;;;17.76;31.67;103024.72;5093576;28;20124;-75
2022/02/11 12:36:37;;;;;;;20.95;3.10;;;;;;;17.73;28.10;103024.72;5090229;28;20551;-76
2022/02/11 12:39:03;;;;;;;21.70;3.20;;;;;;;17.66;28.30;103017.50;5090855;28;20249;-76
2022/02/11 12:41:48;;;;;;;18.52;2.97;;;;;;;17.74;28.10;103021.16;5090954;28;20360;-77
2022/02/11 12:44:24;;;;;;;18.65;3.15;;;;;;;17.20;30.27;103025.09;5090003;28;20056;-81
2022/02/11 12:46:53;;;;;;;18.42;2.67;;;;;;;17.76;27.54;103029.19;5090243;28;20458;-82
2022/02/11 12:49:19;;;;;;;16.75;2.83;;;;;;;18.54;25.35;103007.47;5089326;28;20032;-77
2022/02/11 12:51:52;;;;;;;17.45;2.67;;;;;;;18.67;25.54;103021.84;5088768;28;20035;-82
2022/02/11 12:54:19;;;;;;;14.57;2.50;;;;;;;19.37;23.86;103020.31;5090538;28;20471;-79
2022/02/11 12:56:46;;;;;;;16.10;2.65;;;;;;;18.55;23.97;103013.72;5089339;28;20032;-80
2022/02/11 12:59:11;;;;;;;15.35;2.60;;;;;;;16.77;25.44;103016.50;5090318;28;20051;-77
2022/02/11 13:01:37;;;;;;;15.65;2.70;;;;;;;13.98;28.10;103030.72;5090507;28;20024;-76
2022/02/11 13:04:02;;;;;;;17.65;2.65;;;;;;;13.90;29.36;103023.47;5090975;28;20048;-76
2022/02/11 13:06:31;;;;;;;16.27;2.70;;;;;;;15.40;29.82;103033.88;5090414;28;20063;-78
2022/02/11 13:09:05;;;;;;;16.77;2.60;;;;;;;16.92;27.39;103032.78;5089861;28;20109;-78
2022/02/11 13:11:32;;;;;;;15.38;2.50;;;;;;;17.59;26.12;103027.28;5090526;28;20107;-78
2022/02/11 13:14:06;;;;;;;15.75;2.70;;;;;;;17.83;26.44;103035.50;5090792;28;20028;-80
2022/02/11 13:16:37;;;;;;;14.25;2.30;;;;;;;18.10;25.69;103025.06;5087857;28;20085;-80
2022/02/11 13:19:13;;;;;;;17.05;2.63;;;;;;;17.47;25.20;103026.25;5090566;28;20107;-79
2022/02/11 13:21:40;;;;;;;16.05;2.65;;;;;;;17.69;26.57;103036.28;5090293;28;20056;-78
2022/02/11 13:24:06;;;;;;;18.10;2.70;;;;;;;18.75;25.67;103036.16;5090895;28;20056;-77
2022/02/11 13:26:32;;;;;;;14.15;2.33;;;;;;;19.47;24.24;103043.56;5090576;28;20028;-78
2022/02/11 13:28:57;;;;;;;16.35;2.58;;;;;;;19.98;24.32;103040.06;5090132;28;20119;-77
2022/02/11 13:31:23;;;;;;;16.70;2.80;;;;;;;19.88;22.38;103043.63;5089323;28;20067;-77
2022/02/11 13:34:05;;;;;;;16.50;2.55;;;;;;;17.81;25.69;103047.94;5092583;28;20032;-78
2022/02/11 13:36:30;;;;;;;17.08;2.70;;;;;;;17.13;25.72;103047.28;5092838;28;20121;-79
2022/02/11 13:39:02;;;;;;;18.00;2.70;;;;;;;15.57;27.35;103043.09;5092820;28;20057;-77
2022/02/11 13:41:32;;;;;;;15.32;2.50;;;;;;;15.68;28.19;103049.50;5092860;28;20048;-78
2022/02/11 13:44:06;;;;;;;14.93;2.35;;;;;;;17.10;25.53;103056.13;5092465;28;20020;-77
2022/02/11 13:46:38;;;;;;;17.83;2.60;;;;;;;18.42;24.15;103047.56;5091111;28;20024;-78
2022/02/11 13:49:04;;;;;;;16.93;2.70;;;;;;;18.46;24.46;103052.06;5092302;28;20493;-78
2022/02/11 13:51:32;;;;;;;14.40;2.50;;;;;;;17.14;26.40;103047.28;5092592;28;20282;-79
2022/02/11 13:54:07;;;;;;;16.17;2.55;;;;;;;15.82;27.99;103054.22;5092555;28;20050;-77
2022/02/11 13:56:37;;;;;;;17.08;2.70;;;;;;;14.47;29.30;103058.50;5092454;28;21158;-78
2022/02/11 13:59:08;;;;;;;16.88;2.70;;;;;;;13.65;30.29;103058.25;5092752;28;20032;-78
2022/02/11 14:01:40;;;;;;;16.95;2.70;;;;;;;13.82;31.37;103069.31;5092537;28;20531;-77
2022/02/11 14:04:08;;;;;;;13.73;2.85;;;;;;;14.15;29.72;103069.28;5092421;28;20024;-77
2022/02/11 14:06:37;;;;;;;15.02;2.53;;;;;;;13.47;30.80;103067.53;5091014;28;20082;-78
2022/02/11 14:09:05;;;;;;;16.73;2.92;;;;;;;13.13;32.54;103070.94;5092473;28;20109;-80
2022/02/11 14:11:40;;;;;;;18.45;2.80;;;;;;;12.84;32.16;103068.31;5092105;28;20047;-80
2022/02/11 14:14:13;;;;;;;17.60;3.05;;;;;;;13.56;31.59;103067.78;5092484;28;20368;-80
2022/02/11 14:16:38;;;;;;;18.17;2.78;;;;;;;14.35;30.57;103059.13;5088739;28;20027;-80
2022/02/11 14:19:04;;;;;;;15.00;2.30;;;;;;;15.01;31.14;103072.16;5096538;28;20375;-80
2022/02/11 14:21:29;;;;;;;15.27;2.40;;;;;;;14.69;29.31;103067.03;5096110;28;20031;-80
2022/02/11 14:23:54;;;;;;;17.23;2.78;;;;;;;14.70;31.25;103068.84;5096083;28;20028;-80
2022/02/11 14:26:20;;;;;;;16.55;2.60;;;;;;;15.27;28.52;103065.59;5096098;28;20016;-80
2022/02/11 14:28:45;;;;;;;14.10;2.40;;;;;;;16.68;25.90;103065.34;5096119;28;20061;-80
2022/02/11 14:31:10;;;;;;;15.10;2.55;;;;;;;17.59;26.75;103070.06;5096040;28;20114;-80
2022/02/11 14:33:36;;;;;;;17.08;2.90;;;;;;;18.98;26.35;103070.22;5096034;28;20020;-79
2022/02/11 14:36:01;;;;;;;13.98;2.35;;;;;;;20.08;23.23;103073.16;5095882;28;20028;-79
2022/02/11 14:38:27;;;;;;;17.42;2.72;;;;;;;20.35;21.50;103078.50;5096227;28;20032;-79
2022/02/11 14:43:37;;;;;;;19.10;2.92;;;;;;;18.08;23.65;103083.00;5095645;28;20097;-79
2022/02/11 14:46:02;;;;;;;16.90;2.70;;;;;;;16.34;26.91;103083.53;5095741;28;20465;-79
2022/02/11 14:48:27;;;;;;;17.65;2.80;;;;;;;15.27;28.33;103088.69;5095626;28;20031;-79
2022/02/11 14:50:53;;;;;;;18.75;2.70;;;;;;;14.10;31.00;103094.88;5095542;28;20027;-78
2022/02/11 14:53:18;;;;;;;17.27;2.67;;;;;;;13.32;32.10;103096.28;5095822;28;20028;-79
2022/02/11 14:55:44;;;;;;;18.77;3.08;;;;;;;12.97;34.59;103096.13;5095526;28;20123;-78
2022/02/11 14:58:10;;;;;;;18.13;2.83;;;;;;;12.68;34.72;103096.13;5095638;28;20064;-79
2022/02/11 15:00:35;;;;;;;16.73;2.72;;;;;;;11.89;36.43;103092.63;5095453;28;20129;-79
2022/02/11 15:03:00;;;;;;;19.65;3.20;;;;;;;11.45;36.34;103103.47;5093022;28;20051;-79